createdAt,value
2023-04-25T00:01:19.800Z,6.97
2023-04-25T00:03:47.479Z,6.78
2023-04-25T00:06:15.470Z,6.30
2023-04-25T00:08:42.769Z,7.15
2023-04-25T00:11:10.010Z,8.68
2023-04-25T00:13:37.300Z,8.93
2023-04-25T00:16:05.410Z,9.20
2023-04-25T00:18:34.323Z,9.88
2023-04-25T00:21:01.647Z,9.05
2023-04-25T00:23:29.056Z,9.93
2023-04-25T00:25:56.357Z,9.98
2023-04-25T00:28:23.566Z,11.07
2023-04-25T00:30:51.293Z,8.93
2023-04-25T00:33:18.589Z,10.23
2023-04-25T00:35:45.925Z,8.82
2023-04-25T00:38:13.235Z,9.27
2023-04-25T00:40:40.522Z,8.18
2023-04-25T00:43:07.734Z,8.88
2023-04-25T00:45:39.407Z,7.75
2023-04-25T00:48:07.068Z,8.52
2023-04-25T00:50:38.159Z,8.63
2023-04-25T00:53:05.699Z,7.85
2023-04-25T00:55:35.719Z,7.47
2023-04-25T00:58:03.468Z,8.15
2023-04-25T01:00:31.292Z,7.00
2023-04-25T01:02:59.709Z,7.75
2023-04-25T01:05:27.359Z,8.10
2023-04-25T01:07:55.077Z,8.15
2023-04-25T01:10:22.538Z,7.80
2023-04-25T01:12:49.875Z,7.05
2023-04-25T01:15:17.292Z,7.22
2023-04-25T01:17:45.472Z,7.28
2023-04-25T01:20:13.227Z,7.60
2023-04-25T01:22:40.763Z,6.50
2023-04-25T01:25:09.728Z,6.18
2023-04-25T01:27:38.662Z,7.18
2023-04-25T01:30:07.857Z,6.03
2023-04-25T01:32:39.609Z,6.40
2023-04-25T01:35:10.570Z,6.65
2023-04-25T01:37:44.884Z,6.32
2023-04-25T01:40:14.610Z,6.80
2023-04-25T01:42:44.741Z,6.28
2023-04-25T01:45:13.773Z,6.68
2023-04-25T01:47:41.325Z,6.63
2023-04-25T01:50:10.389Z,6.10
2023-04-25T01:52:38.703Z,6.97
2023-04-25T01:55:07.179Z,5.43
2023-04-25T01:57:36.822Z,6.60
2023-04-25T02:00:08.097Z,6.95
2023-04-25T02:02:41.629Z,6.10
2023-04-25T02:05:24.003Z,6.40
2023-04-25T02:07:52.866Z,6.53
2023-04-25T02:10:20.371Z,6.85
2023-04-25T02:13:08.074Z,7.15
2023-04-25T02:15:55.441Z,5.93
2023-04-25T02:18:22.892Z,6.05
2023-04-25T02:20:50.792Z,6.75
2023-04-25T02:23:20.075Z,6.57
2023-04-25T02:25:47.659Z,6.15
2023-04-25T02:28:15.061Z,6.70
2023-04-25T02:30:42.294Z,7.47
2023-04-25T02:33:10.380Z,6.38
2023-04-25T02:35:37.679Z,8.00
2023-04-25T02:38:04.920Z,6.03
2023-04-25T02:40:34.013Z,7.35
2023-04-25T02:43:01.343Z,6.50
2023-04-25T02:45:28.723Z,6.85
2023-04-25T02:47:56.886Z,5.95
2023-04-25T02:50:24.258Z,6.63
2023-04-25T02:52:51.654Z,5.90
2023-04-25T02:55:25.195Z,5.38
2023-04-25T02:57:56.387Z,5.82
2023-04-25T03:00:36.396Z,5.82
2023-04-25T03:03:04.101Z,4.72
2023-04-25T03:05:31.550Z,5.28
2023-04-25T03:07:59.938Z,5.45
2023-04-25T03:10:27.944Z,5.05
2023-04-25T03:12:57.450Z,4.78
2023-04-25T03:15:25.064Z,4.75
2023-04-25T03:17:53.635Z,5.47
2023-04-25T03:20:21.169Z,4.47
2023-04-25T03:22:48.417Z,4.40
2023-04-25T03:25:15.910Z,4.97
2023-04-25T03:27:43.756Z,4.32
2023-04-25T03:30:12.134Z,4.97
2023-04-25T03:32:40.902Z,4.55
2023-04-25T03:35:08.732Z,5.18
2023-04-25T03:37:36.316Z,4.63
2023-04-25T03:40:03.901Z,4.85
2023-04-25T03:42:51.196Z,4.95
2023-04-25T03:45:19.216Z,4.57
2023-04-25T03:47:46.543Z,4.65
2023-04-25T03:50:14.205Z,5.18
2023-04-25T03:52:41.578Z,5.78
2023-04-25T03:55:10.092Z,4.60
2023-04-25T03:57:38.024Z,5.18
2023-04-25T04:00:06.171Z,5.85
2023-04-25T04:02:41.878Z,5.55
2023-04-25T04:05:11.954Z,5.50
2023-04-25T04:07:46.502Z,5.13
2023-04-25T04:10:14.329Z,5.22
2023-04-25T04:12:42.205Z,4.97
2023-04-25T04:15:10.931Z,4.50
2023-04-25T04:17:38.491Z,5.20
2023-04-25T04:20:08.492Z,4.53
2023-04-25T04:22:37.403Z,5.03
2023-04-25T04:25:11.356Z,5.38
2023-04-25T04:28:12.275Z,4.53
2023-04-25T04:31:06.064Z,4.53
2023-04-25T04:33:33.786Z,3.97
2023-04-25T04:36:05.288Z,4.78
2023-04-25T04:38:33.490Z,4.72
2023-04-25T04:43:47.002Z,4.53
2023-04-25T04:46:43.571Z,4.30
2023-04-25T04:49:17.595Z,4.82
2023-04-25T04:52:05.210Z,4.32
2023-04-25T04:54:52.903Z,4.10
2023-04-25T04:57:55.913Z,3.80
2023-04-25T05:00:41.960Z,3.95
2023-04-25T05:03:38.652Z,5.05
2023-04-25T05:06:23.445Z,4.15
2023-04-25T05:09:14.655Z,4.15
2023-04-25T05:11:55.183Z,4.10
2023-04-25T05:14:51.617Z,4.78
2023-04-25T05:17:38.068Z,4.45
2023-04-25T05:20:23.779Z,4.63
2023-04-25T05:23:03.692Z,4.07
2023-04-25T05:25:53.924Z,4.57
2023-04-25T05:28:43.986Z,4.10
2023-04-25T05:31:25.888Z,4.20
2023-04-25T05:34:03.983Z,4.55
2023-04-25T05:36:42.596Z,3.60
2023-04-25T05:39:09.999Z,4.25
2023-04-25T05:41:55.722Z,4.10
2023-04-25T05:44:55.150Z,4.53
2023-04-25T05:47:32.473Z,4.18
2023-04-25T05:50:15.010Z,4.75
2023-04-25T05:52:52.585Z,4.20
2023-04-25T05:55:46.082Z,5.00
2023-04-25T05:58:25.307Z,4.50
2023-04-25T06:00:52.712Z,4.65
2023-04-25T06:03:20.859Z,5.50
2023-04-25T06:05:49.693Z,4.57
2023-04-25T06:08:17.652Z,4.40
2023-04-25T06:10:44.894Z,3.97
2023-04-25T06:13:12.279Z,3.97
2023-04-25T06:15:40.205Z,4.10
2023-04-25T06:18:08.604Z,3.90
2023-04-25T06:20:36.071Z,4.20
2023-04-25T06:23:03.595Z,4.72
2023-04-25T06:25:41.015Z,3.83
2023-04-25T06:28:08.351Z,4.68
2023-04-25T06:30:36.174Z,4.15
2023-04-25T06:33:09.728Z,3.67
2023-04-25T06:35:38.148Z,4.15
2023-04-25T06:38:08.073Z,4.17
2023-04-25T06:40:37.084Z,4.03
2023-04-25T06:43:05.803Z,4.03
2023-04-25T06:45:55.949Z,3.58
2023-04-25T06:48:24.451Z,3.30
2023-04-25T06:50:53.373Z,3.42
2023-04-25T06:53:20.803Z,3.78
2023-04-25T06:55:53.201Z,4.45
2023-04-25T06:58:23.343Z,4.28
2023-04-25T07:00:57.372Z,4.30
2023-04-25T07:03:26.880Z,3.67
2023-04-25T07:05:58.977Z,3.80
2023-04-25T07:08:26.579Z,3.78
2023-04-25T07:10:53.940Z,3.40
2023-04-25T07:13:21.220Z,3.42
2023-04-25T07:15:49.636Z,3.67
2023-04-25T07:18:18.743Z,3.55
2023-04-25T07:20:46.065Z,3.28
2023-04-25T07:23:13.922Z,3.58
2023-04-25T07:25:41.267Z,4.22
2023-04-25T07:28:09.245Z,3.67
2023-04-25T07:30:37.808Z,3.63
2023-04-25T07:33:05.588Z,3.95
2023-04-25T07:35:32.945Z,4.18
2023-04-25T07:38:00.315Z,3.92
2023-04-25T07:40:27.667Z,2.88
2023-04-25T07:43:03.507Z,3.30
2023-04-25T07:45:38.734Z,3.20
2023-04-25T07:48:06.862Z,3.20
2023-04-25T07:50:37.507Z,3.10
2023-04-25T07:53:05.301Z,3.40
2023-04-25T07:55:40.939Z,2.72
2023-04-25T07:58:16.419Z,3.00
2023-04-25T08:00:46.306Z,2.90
2023-04-25T08:03:29.020Z,3.05
2023-04-25T08:05:57.284Z,2.97
2023-04-25T08:08:26.796Z,3.10
2023-04-25T08:10:54.346Z,2.75
2023-04-25T08:13:22.177Z,2.70
2023-04-25T08:15:49.628Z,2.47
2023-04-25T08:18:17.737Z,3.20
2023-04-25T08:20:46.932Z,3.13
2023-04-25T08:23:15.992Z,3.08
2023-04-25T08:26:06.673Z,2.88
2023-04-25T08:28:36.753Z,3.42
2023-04-25T08:31:04.958Z,2.45
2023-04-25T08:33:40.673Z,2.60
2023-04-25T08:36:38.465Z,3.10
2023-04-25T08:39:18.550Z,2.78
2023-04-25T08:42:04.837Z,2.30
2023-04-25T08:44:34.507Z,2.72
2023-04-25T08:47:06.198Z,2.50
2023-04-25T08:49:38.754Z,2.53
2023-04-25T08:52:07.504Z,2.10
2023-04-25T08:54:38.499Z,2.55
2023-04-25T08:57:08.701Z,2.15
2023-04-25T08:59:39.256Z,2.65
2023-04-25T09:02:07.539Z,2.42
2023-04-25T09:04:34.922Z,2.40
2023-04-25T09:07:02.182Z,2.42
2023-04-25T09:09:31.299Z,2.60
2023-04-25T09:11:59.153Z,1.80
2023-04-25T09:14:28.917Z,1.75
2023-04-25T09:17:05.922Z,2.30
2023-04-25T09:19:42.699Z,2.55
2023-04-25T09:22:31.381Z,2.40
2023-04-25T09:25:03.370Z,2.42
2023-04-25T09:27:30.760Z,1.70
2023-04-25T09:30:06.496Z,2.03
2023-04-25T09:32:49.227Z,2.20
2023-04-25T09:35:29.388Z,2.20
2023-04-25T09:37:59.892Z,1.88
2023-04-25T09:40:56.650Z,1.48
2023-04-25T09:43:36.161Z,1.57
2023-04-25T09:46:08.732Z,1.80
2023-04-25T09:48:37.466Z,2.53
2023-04-25T09:51:14.718Z,2.17
2023-04-25T09:53:51.998Z,2.00
2023-04-25T09:56:38.535Z,2.15
2023-04-25T09:59:09.969Z,1.85
2023-04-25T10:04:17.273Z,1.88
2023-04-25T10:06:58.888Z,1.90
2023-04-25T10:09:33.011Z,1.80
2023-04-25T10:12:01.446Z,1.70
2023-04-25T10:14:30.560Z,1.80
2023-04-25T10:17:00.058Z,1.75
2023-04-25T10:19:28.850Z,2.30
2023-04-25T10:22:08.683Z,1.98
2023-04-25T10:24:40.718Z,2.25
2023-04-25T10:27:08.422Z,1.90
2023-04-25T10:29:36.942Z,1.73
2023-04-25T10:32:04.726Z,2.17
2023-04-25T10:34:48.250Z,2.03
2023-04-25T10:37:16.681Z,2.30
2023-04-25T10:39:44.821Z,2.08
2023-04-25T10:42:13.221Z,3.28
2023-04-25T10:44:40.987Z,3.05
2023-04-25T10:47:10.802Z,1.98
2023-04-25T10:49:44.327Z,2.42
2023-04-25T10:52:29.383Z,2.78
2023-04-25T10:54:59.151Z,2.58
2023-04-25T10:57:50.752Z,1.95
2023-04-25T11:00:20.764Z,1.92
2023-04-25T11:03:00.447Z,2.03
2023-04-25T11:05:43.920Z,1.83
2023-04-25T11:08:49.305Z,2.50
2023-04-25T11:11:20.822Z,2.30
2023-04-25T11:13:51.696Z,2.40
2023-04-25T11:16:27.516Z,1.88
2023-04-25T11:18:58.862Z,2.70
2023-04-25T11:21:30.286Z,2.33
2023-04-25T11:23:58.376Z,2.67
2023-04-25T11:26:27.006Z,3.65
2023-04-25T11:29:02.894Z,2.58
2023-04-25T11:31:31.080Z,3.50
2023-04-25T11:33:59.119Z,3.03
2023-04-25T11:36:28.011Z,2.50
2023-04-25T11:38:55.859Z,2.00
2023-04-25T11:41:23.497Z,2.38
2023-04-25T11:43:53.041Z,2.53
2023-04-25T11:46:21.445Z,2.20
2023-04-25T11:48:49.128Z,1.90
2023-04-25T11:51:16.656Z,2.47
2023-04-25T11:53:45.946Z,2.10
2023-04-25T11:56:14.026Z,2.65
2023-04-25T11:59:17.834Z,2.80
2023-04-25T12:01:51.694Z,2.35
2023-04-25T12:04:26.504Z,2.20
2023-04-25T12:06:56.193Z,2.50
2023-04-25T12:09:32.952Z,2.57
2023-04-25T12:12:04.973Z,2.40
2023-04-25T12:14:35.850Z,2.13
2023-04-25T12:17:06.340Z,2.40
2023-04-25T12:19:41.778Z,2.67
2023-04-25T12:22:24.321Z,3.03
2023-04-25T12:24:54.221Z,3.58
2023-04-25T12:27:22.801Z,2.53
2023-04-25T12:29:57.401Z,2.45
2023-04-25T12:32:26.278Z,3.00
2023-04-25T12:34:53.650Z,2.90
2023-04-25T12:37:20.882Z,3.20
2023-04-25T12:39:48.177Z,2.83
2023-04-25T12:42:15.475Z,3.10
2023-04-25T12:44:43.024Z,2.90
2023-04-25T12:47:10.699Z,3.00
2023-04-25T12:49:38.145Z,2.95
2023-04-25T12:52:05.319Z,3.42
2023-04-25T12:54:32.904Z,2.95
2023-04-25T12:57:00.299Z,2.53
2023-04-25T12:59:27.815Z,2.90
2023-04-25T13:01:55.279Z,3.50
2023-04-25T13:04:22.781Z,3.10
2023-04-25T13:06:50.204Z,2.80
2023-04-25T13:09:17.463Z,2.60
2023-04-25T13:11:44.808Z,3.20
2023-04-25T13:14:12.092Z,2.80
2023-04-25T13:16:39.369Z,3.42
2023-04-25T13:19:08.864Z,3.00
2023-04-25T13:21:36.149Z,3.30
2023-04-25T13:24:03.578Z,3.75
2023-04-25T13:26:31.081Z,2.95
2023-04-25T13:28:58.384Z,2.97
2023-04-25T13:31:25.910Z,3.90
2023-04-25T13:33:53.481Z,3.10
2023-04-25T13:36:20.883Z,3.30
2023-04-25T13:38:50.245Z,2.65
2023-04-25T13:41:19.906Z,2.78
2023-04-25T13:43:48.926Z,2.70
2023-04-25T13:46:35.574Z,3.03
2023-04-25T13:49:12.158Z,2.88
2023-04-25T13:51:41.010Z,2.33
2023-04-25T13:54:08.774Z,2.85
2023-04-25T13:56:36.294Z,2.83
2023-04-25T13:59:03.980Z,3.00
2023-04-25T14:01:35.417Z,3.45
2023-04-25T14:04:05.800Z,2.85
2023-04-25T14:09:05.660Z,2.60
2023-04-25T14:11:32.995Z,2.80
2023-04-25T14:14:00.206Z,2.63
2023-04-25T14:16:27.538Z,2.13
2023-04-25T14:18:55.674Z,2.63
2023-04-25T14:21:22.963Z,2.75
2023-04-25T14:23:50.567Z,2.97
2023-04-25T14:26:18.036Z,2.33
2023-04-25T14:28:45.579Z,2.47
2023-04-25T14:31:12.968Z,2.60
2023-04-25T14:33:43.237Z,2.67
2023-04-25T14:36:12.128Z,3.03
2023-04-25T14:38:39.511Z,3.05
2023-04-25T14:41:06.907Z,2.78
2023-04-25T14:43:34.132Z,3.05
2023-04-25T14:46:01.814Z,3.60
2023-04-25T14:48:29.905Z,3.35
2023-04-25T14:51:01.058Z,3.42
2023-04-25T14:53:29.111Z,3.20
2023-04-25T14:55:56.433Z,3.17
2023-04-25T14:58:23.963Z,3.78
2023-04-25T15:00:51.740Z,3.38
2023-04-25T15:03:20.032Z,3.42
2023-04-25T15:05:47.410Z,3.47
2023-04-25T15:08:14.636Z,4.55
2023-04-25T15:10:41.955Z,3.17
2023-04-25T15:13:09.682Z,3.35
2023-04-25T15:15:36.922Z,3.08
2023-04-25T15:18:04.499Z,4.00
2023-04-25T15:20:32.487Z,3.60
2023-04-25T15:22:59.876Z,3.90
2023-04-25T15:25:29.657Z,3.78
2023-04-25T15:27:56.920Z,3.72
2023-04-25T15:30:24.625Z,5.30
2023-04-25T15:32:52.036Z,5.28
2023-04-25T15:35:19.297Z,4.05
2023-04-25T15:37:46.710Z,4.75
2023-04-25T15:40:16.859Z,7.07
2023-04-25T15:42:51.766Z,8.18
2023-04-25T15:45:24.303Z,8.23
2023-04-25T15:47:55.189Z,8.88
2023-04-25T15:50:23.492Z,8.95
2023-04-25T15:52:52.578Z,9.77
2023-04-25T15:55:23.779Z,8.60
2023-04-25T15:57:51.547Z,8.90
2023-04-25T16:00:21.243Z,7.53
2023-04-25T16:02:48.820Z,7.37
2023-04-25T16:05:17.451Z,6.70
2023-04-25T16:07:46.851Z,6.57
2023-04-25T16:10:17.292Z,7.57
2023-04-25T16:12:44.645Z,7.15
2023-04-25T16:15:12.041Z,7.88
2023-04-25T16:17:39.486Z,7.25
2023-04-25T16:20:10.480Z,7.93
2023-04-25T16:22:42.686Z,7.43
2023-04-25T16:25:12.193Z,8.02
2023-04-25T16:27:39.833Z,7.43
2023-04-25T16:30:11.781Z,7.95
2023-04-25T16:32:41.805Z,7.70
2023-04-25T16:35:11.016Z,8.48
2023-04-25T16:37:38.313Z,8.55
2023-04-25T16:40:10.066Z,9.32
2023-04-25T16:42:37.773Z,9.60
2023-04-25T16:45:05.980Z,9.23
2023-04-25T16:47:33.384Z,9.00
2023-04-25T16:50:01.767Z,9.40
2023-04-25T16:52:29.021Z,11.27
2023-04-25T16:54:56.507Z,10.75
2023-04-25T16:57:24.000Z,10.35
2023-04-25T16:59:52.153Z,9.90
2023-04-25T17:02:19.581Z,9.77
2023-04-25T17:04:47.166Z,8.52
2023-04-25T17:07:16.002Z,9.38
2023-04-25T17:09:43.350Z,8.25
2023-04-25T17:12:10.911Z,8.60
2023-04-25T17:14:39.081Z,8.38
2023-04-25T17:17:07.097Z,9.13
2023-04-25T17:19:34.515Z,9.40
2023-04-25T17:22:01.975Z,9.57
2023-04-25T17:24:29.429Z,8.60
2023-04-25T17:26:57.355Z,9.73
2023-04-25T17:29:24.892Z,9.23
2023-04-25T17:31:53.595Z,9.15
2023-04-25T17:34:21.596Z,9.52
2023-04-25T17:36:49.282Z,8.85
2023-04-25T17:39:17.731Z,9.55
2023-04-25T17:41:45.576Z,9.70
2023-04-25T17:44:13.400Z,10.52
2023-04-25T17:46:40.851Z,11.48
2023-04-25T17:49:08.400Z,10.93
2023-04-25T17:51:35.859Z,12.13
2023-04-25T17:54:03.202Z,11.60
2023-04-25T17:56:31.325Z,10.77
2023-04-25T17:58:59.254Z,10.27
2023-04-25T18:01:27.025Z,10.50
2023-04-25T18:03:54.967Z,10.60
2023-04-25T18:06:22.504Z,10.10
2023-04-25T18:08:50.107Z,9.23
2023-04-25T18:11:17.643Z,10.52
2023-04-25T18:13:44.879Z,9.77
2023-04-25T18:16:12.360Z,9.55
2023-04-25T18:18:43.175Z,10.65
2023-04-25T18:21:10.827Z,10.27
2023-04-25T18:23:38.785Z,9.32
2023-04-25T18:26:06.146Z,10.27
2023-04-25T18:28:34.575Z,9.63
2023-04-25T18:31:02.009Z,9.90
2023-04-25T18:33:29.349Z,11.05
2023-04-25T18:35:59.583Z,10.25
2023-04-25T18:43:45.779Z,9.43
2023-04-25T18:46:13.217Z,10.38
2023-04-25T18:48:40.564Z,9.35
2023-04-25T18:51:07.968Z,9.30
2023-04-25T18:53:35.311Z,9.27
2023-04-25T18:56:02.679Z,9.52
2023-04-25T18:58:30.023Z,10.82
2023-04-25T19:00:57.493Z,9.93
2023-04-25T19:03:24.988Z,9.82
2023-04-25T19:05:52.729Z,10.75
2023-04-25T19:08:21.077Z,10.15
2023-04-25T19:10:50.372Z,10.82
2023-04-25T19:13:17.718Z,10.00
2023-04-25T19:15:45.998Z,11.32
2023-04-25T19:18:14.963Z,11.30
2023-04-25T19:20:43.867Z,10.05
2023-04-25T19:23:11.650Z,9.18
2023-04-25T19:25:39.003Z,8.43
2023-04-25T19:28:07.860Z,8.73
2023-04-25T19:30:35.530Z,8.57
2023-04-25T19:33:03.635Z,8.15
2023-04-25T19:35:32.869Z,6.65
2023-04-25T19:38:00.364Z,7.97
2023-04-25T19:40:27.912Z,7.10
2023-04-25T19:42:55.631Z,5.65
2023-04-25T19:45:23.172Z,5.13
2023-04-25T19:47:50.498Z,5.28
2023-04-25T19:50:18.126Z,4.80
2023-04-25T19:52:45.547Z,4.03
2023-04-25T19:55:12.899Z,3.90
2023-04-25T19:57:41.218Z,4.93
2023-04-25T20:00:12.934Z,3.80
2023-04-25T20:02:41.669Z,3.95
2023-04-25T20:05:09.733Z,2.97
2023-04-25T20:07:37.102Z,3.53
2023-04-25T20:10:08.003Z,3.08
2023-04-25T20:12:45.450Z,3.00
2023-04-25T20:15:12.909Z,2.88
2023-04-25T20:17:41.837Z,2.90
2023-04-25T20:20:11.650Z,3.00
2023-04-25T20:22:40.614Z,3.80
2023-04-25T20:25:10.503Z,3.20
2023-04-25T20:27:38.359Z,3.55
2023-04-25T20:30:10.405Z,3.38
2023-04-25T20:32:38.177Z,3.88
2023-04-25T20:35:08.801Z,3.47
2023-04-25T20:40:07.861Z,4.30
2023-04-25T20:42:36.301Z,3.80
2023-04-25T20:45:07.711Z,3.80
2023-04-25T20:47:35.482Z,3.75
2023-04-25T20:50:05.989Z,3.80
2023-04-25T20:52:33.895Z,3.70
2023-04-25T20:55:02.195Z,3.58
2023-04-25T20:57:29.579Z,4.13
2023-04-25T20:59:57.429Z,3.60
2023-04-25T21:02:24.983Z,3.03
2023-04-25T21:04:52.409Z,3.95
2023-04-25T21:07:19.743Z,3.83
2023-04-25T21:09:48.021Z,3.90
2023-04-25T21:12:15.370Z,3.58
2023-04-25T21:14:42.705Z,4.60
2023-04-25T21:17:10.082Z,3.50
2023-04-25T21:19:37.374Z,3.35
2023-04-25T21:22:04.794Z,3.38
2023-04-25T21:24:33.246Z,2.88
2023-04-25T21:27:01.213Z,3.55
2023-04-25T21:29:28.467Z,3.20
2023-04-25T21:31:56.859Z,3.13
2023-04-25T21:34:24.187Z,3.05
2023-04-25T21:36:51.373Z,3.10
2023-04-25T21:39:19.938Z,3.28
2023-04-25T21:41:48.386Z,3.05
2023-04-25T21:44:15.863Z,3.47
2023-04-25T21:46:43.797Z,2.92
2023-04-25T21:49:12.541Z,2.97
2023-04-25T21:51:39.860Z,2.90
2023-04-25T21:54:07.854Z,2.67
2023-04-25T21:56:35.113Z,3.33
2023-04-25T21:59:02.357Z,2.67
2023-04-25T22:01:29.766Z,3.40
2023-04-25T22:03:57.446Z,3.28
2023-04-25T22:06:24.878Z,2.72
2023-04-25T22:08:52.507Z,3.03
2023-04-25T22:11:19.938Z,2.95
2023-04-25T22:13:47.200Z,2.90
2023-04-25T22:16:15.201Z,3.05
2023-04-25T22:18:43.338Z,2.30
2023-04-25T22:21:10.672Z,2.40
2023-04-25T22:23:37.940Z,2.65
2023-04-25T22:26:05.755Z,3.50
2023-04-25T22:28:33.806Z,2.83
2023-04-25T22:31:01.208Z,2.95
2023-04-25T22:33:28.562Z,2.83
2023-04-25T22:35:56.336Z,3.92
2023-04-25T22:38:23.665Z,3.13
2023-04-25T22:40:50.914Z,2.60
2023-04-25T22:43:18.173Z,2.55
2023-04-25T22:45:45.453Z,2.72
2023-04-25T22:48:13.068Z,2.83
2023-04-25T22:50:41.042Z,3.10
2023-04-25T22:53:10.395Z,3.28
2023-04-25T22:55:37.893Z,3.17
2023-04-25T22:58:07.591Z,3.00
2023-04-25T23:00:35.446Z,2.83
2023-04-25T23:03:04.158Z,2.72
2023-04-25T23:05:32.861Z,3.10
2023-04-25T23:08:00.378Z,2.65
2023-04-25T23:10:28.748Z,3.42
2023-04-25T23:12:58.209Z,2.95
2023-04-25T23:15:28.350Z,2.70
2023-04-25T23:17:55.787Z,2.53
2023-04-25T23:20:23.610Z,2.83
2023-04-25T23:22:51.424Z,2.90
2023-04-25T23:25:19.238Z,3.80
2023-04-25T23:27:46.567Z,2.83
2023-04-25T23:30:15.339Z,2.55
2023-04-25T23:32:42.730Z,2.92
2023-04-25T23:35:10.626Z,3.35
2023-04-25T23:37:38.839Z,3.22
2023-04-25T23:40:10.770Z,3.22
2023-04-25T23:42:39.127Z,2.85
2023-04-25T23:45:08.511Z,3.45
2023-04-25T23:47:36.697Z,3.88
2023-04-25T23:50:04.706Z,2.85
2023-04-25T23:52:32.004Z,3.15
2023-04-25T23:54:59.204Z,2.92
2023-04-25T23:57:26.884Z,3.08
2023-04-25T23:59:54.227Z,3.47
